sensor_id;sensor_type;location;lat;lon;timestamp;P1;durP1;ratioP1;P2;durP2;ratioP2
55150;SDS011;41041;43.162;20.538;2023-04-15T00:00:06;19.35;;;10.55;;
55150;SDS011;41041;43.162;20.538;2023-04-15T00:02:32;22.73;;;12.43;;
55150;SDS011;41041;43.162;20.538;2023-04-15T00:04:59;24.55;;;12.80;;
55150;SDS011;41041;43.162;20.538;2023-04-15T00:07:25;22.60;;;10.40;;
55150;SDS011;41041;43.162;20.538;2023-04-15T00:09:55;21.27;;;11.90;;
55150;SDS011;41041;43.162;20.538;2023-04-15T00:12:22;21.88;;;11.13;;
55150;SDS011;41041;43.162;20.538;2023-04-15T00:14:48;19.10;;;10.35;;
55150;SDS011;41041;43.162;20.538;2023-04-15T00:17:15;20.15;;;9.65;;
55150;SDS011;41041;43.162;20.538;2023-04-15T00:19:41;22.42;;;10.40;;
55150;SDS011;41041;43.162;20.538;2023-04-15T00:22:08;21.00;;;10.60;;
55150;SDS011;41041;43.162;20.538;2023-04-15T00:24:34;11.50;;;6.07;;
55150;SDS011;41041;43.162;20.538;2023-04-15T00:26:59;9.18;;;4.68;;
55150;SDS011;41041;43.162;20.538;2023-04-15T00:29:25;9.85;;;5.13;;
55150;SDS011;41041;43.162;20.538;2023-04-15T00:31:51;11.30;;;5.55;;
55150;SDS011;41041;43.162;20.538;2023-04-15T00:34:17;12.35;;;7.00;;
55150;SDS011;41041;43.162;20.538;2023-04-15T00:36:43;22.67;;;13.20;;
55150;SDS011;41041;43.162;20.538;2023-04-15T00:39:09;22.00;;;12.52;;
55150;SDS011;41041;43.162;20.538;2023-04-15T00:41:34;23.98;;;13.20;;
55150;SDS011;41041;43.162;20.538;2023-04-15T00:44:04;18.48;;;10.80;;
55150;SDS011;41041;43.162;20.538;2023-04-15T00:46:30;12.50;;;6.95;;
55150;SDS011;41041;43.162;20.538;2023-04-15T00:49:00;18.23;;;8.07;;
55150;SDS011;41041;43.162;20.538;2023-04-15T00:51:28;18.05;;;10.25;;
55150;SDS011;41041;43.162;20.538;2023-04-15T00:53:55;17.08;;;9.30;;
55150;SDS011;41041;43.162;20.538;2023-04-15T00:56:21;19.45;;;9.55;;
55150;SDS011;41041;43.162;20.538;2023-04-15T00:58:55;17.08;;;8.38;;
55150;SDS011;41041;43.162;20.538;2023-04-15T01:01:23;29.88;;;16.25;;
55150;SDS011;41041;43.162;20.538;2023-04-15T01:03:50;53.00;;;26.48;;
55150;SDS011;41041;43.162;20.538;2023-04-15T01:08:46;17.23;;;8.15;;
55150;SDS011;41041;43.162;20.538;2023-04-15T01:11:12;18.67;;;9.20;;
55150;SDS011;41041;43.162;20.538;2023-04-15T01:13:40;18.50;;;9.73;;
55150;SDS011;41041;43.162;20.538;2023-04-15T01:16:07;12.18;;;6.32;;
55150;SDS011;41041;43.162;20.538;2023-04-15T01:18:33;12.10;;;6.80;;
55150;SDS011;41041;43.162;20.538;2023-04-15T01:21:01;37.05;;;17.95;;
55150;SDS011;41041;43.162;20.538;2023-04-15T01:23:29;13.40;;;5.88;;
55150;SDS011;41041;43.162;20.538;2023-04-15T01:25:55;8.45;;;4.63;;
55150;SDS011;41041;43.162;20.538;2023-04-15T01:28:22;13.55;;;7.43;;
55150;SDS011;41041;43.162;20.538;2023-04-15T01:30:48;25.55;;;12.65;;
55150;SDS011;41041;43.162;20.538;2023-04-15T01:33:14;16.92;;;8.73;;
55150;SDS011;41041;43.162;20.538;2023-04-15T01:35:58;15.43;;;7.80;;
55150;SDS011;41041;43.162;20.538;2023-04-15T01:38:25;24.17;;;11.65;;
55150;SDS011;41041;43.162;20.538;2023-04-15T01:40:52;18.70;;;10.02;;
55150;SDS011;41041;43.162;20.538;2023-04-15T01:43:18;12.40;;;6.18;;
55150;SDS011;41041;43.162;20.538;2023-04-15T01:45:44;15.25;;;7.10;;
55150;SDS011;41041;43.162;20.538;2023-04-15T01:48:11;18.45;;;7.60;;
55150;SDS011;41041;43.162;20.538;2023-04-15T01:50:37;10.95;;;5.63;;
55150;SDS011;41041;43.162;20.538;2023-04-15T01:53:03;12.65;;;5.75;;
55150;SDS011;41041;43.162;20.538;2023-04-15T01:55:29;11.38;;;5.70;;
55150;SDS011;41041;43.162;20.538;2023-04-15T01:57:55;11.48;;;6.10;;
55150;SDS011;41041;43.162;20.538;2023-04-15T02:00:21;11.57;;;5.72;;
55150;SDS011;41041;43.162;20.538;2023-04-15T02:02:47;9.27;;;4.90;;
55150;SDS011;41041;43.162;20.538;2023-04-15T02:05:13;14.32;;;6.40;;
55150;SDS011;41041;43.162;20.538;2023-04-15T02:07:41;14.18;;;6.57;;
55150;SDS011;41041;43.162;20.538;2023-04-15T02:10:08;21.20;;;10.32;;
55150;SDS011;41041;43.162;20.538;2023-04-15T02:12:34;14.90;;;7.20;;
55150;SDS011;41041;43.162;20.538;2023-04-15T02:15:00;16.75;;;8.52;;
55150;SDS011;41041;43.162;20.538;2023-04-15T02:17:26;10.90;;;6.45;;
55150;SDS011;41041;43.162;20.538;2023-04-15T02:19:52;18.73;;;9.48;;
55150;SDS011;41041;43.162;20.538;2023-04-15T02:22:20;22.17;;;10.77;;
55150;SDS011;41041;43.162;20.538;2023-04-15T02:24:46;17.67;;;8.23;;
55150;SDS011;41041;43.162;20.538;2023-04-15T02:27:16;9.52;;;5.85;;
55150;SDS011;41041;43.162;20.538;2023-04-15T02:29:45;10.73;;;5.70;;
55150;SDS011;41041;43.162;20.538;2023-04-15T02:32:11;14.30;;;6.15;;
55150;SDS011;41041;43.162;20.538;2023-04-15T02:34:38;21.60;;;6.80;;
55150;SDS011;41041;43.162;20.538;2023-04-15T02:37:06;13.18;;;6.15;;
55150;SDS011;41041;43.162;20.538;2023-04-15T02:39:35;9.95;;;5.97;;
55150;SDS011;41041;43.162;20.538;2023-04-15T02:42:02;9.48;;;5.82;;
55150;SDS011;41041;43.162;20.538;2023-04-15T02:44:29;12.70;;;6.50;;
55150;SDS011;41041;43.162;20.538;2023-04-15T02:46:56;12.43;;;6.20;;
55150;SDS011;41041;43.162;20.538;2023-04-15T02:49:22;12.93;;;6.00;;
55150;SDS011;41041;43.162;20.538;2023-04-15T02:51:49;21.98;;;10.77;;
55150;SDS011;41041;43.162;20.538;2023-04-15T02:54:18;18.20;;;9.65;;
55150;SDS011;41041;43.162;20.538;2023-04-15T02:56:45;13.77;;;7.28;;
55150;SDS011;41041;43.162;20.538;2023-04-15T02:59:11;13.52;;;7.00;;
55150;SDS011;41041;43.162;20.538;2023-04-15T03:01:37;14.23;;;7.38;;
55150;SDS011;41041;43.162;20.538;2023-04-15T03:04:03;16.38;;;7.40;;
55150;SDS011;41041;43.162;20.538;2023-04-15T03:09:16;17.35;;;7.88;;
55150;SDS011;41041;43.162;20.538;2023-04-15T03:11:42;16.48;;;6.93;;
55150;SDS011;41041;43.162;20.538;2023-04-15T03:14:16;19.42;;;7.35;;
55150;SDS011;41041;43.162;20.538;2023-04-15T03:16:42;19.15;;;7.80;;
55150;SDS011;41041;43.162;20.538;2023-04-15T03:19:15;16.00;;;7.72;;
55150;SDS011;41041;43.162;20.538;2023-04-15T03:21:40;17.75;;;8.75;;
55150;SDS011;41041;43.162;20.538;2023-04-15T03:24:06;20.23;;;8.75;;
55150;SDS011;41041;43.162;20.538;2023-04-15T03:26:32;16.23;;;9.02;;
55150;SDS011;41041;43.162;20.538;2023-04-15T03:28:58;17.08;;;8.90;;
55150;SDS011;41041;43.162;20.538;2023-04-15T03:31:23;13.65;;;7.93;;
55150;SDS011;41041;43.162;20.538;2023-04-15T03:33:49;13.40;;;7.57;;
55150;SDS011;41041;43.162;20.538;2023-04-15T03:36:15;17.63;;;7.85;;
55150;SDS011;41041;43.162;20.538;2023-04-15T03:38:41;19.52;;;7.50;;
55150;SDS011;41041;43.162;20.538;2023-04-15T03:41:07;13.77;;;7.97;;
55150;SDS011;41041;43.162;20.538;2023-04-15T03:43:33;30.92;;;17.13;;
55150;SDS011;41041;43.162;20.538;2023-04-15T03:45:59;22.50;;;11.50;;
55150;SDS011;41041;43.162;20.538;2023-04-15T03:48:26;17.13;;;9.57;;
55150;SDS011;41041;43.162;20.538;2023-04-15T03:50:51;15.60;;;8.57;;
55150;SDS011;41041;43.162;20.538;2023-04-15T03:53:17;15.73;;;8.63;;
55150;SDS011;41041;43.162;20.538;2023-04-15T03:55:43;19.60;;;8.80;;
55150;SDS011;41041;43.162;20.538;2023-04-15T03:58:08;16.45;;;7.50;;
55150;SDS011;41041;43.162;20.538;2023-04-15T04:00:37;13.88;;;6.57;;
55150;SDS011;41041;43.162;20.538;2023-04-15T04:03:03;14.15;;;6.65;;
55150;SDS011;41041;43.162;20.538;2023-04-15T04:05:29;11.45;;;7.18;;
55150;SDS011;41041;43.162;20.538;2023-04-15T04:07:55;17.83;;;8.48;;
55150;SDS011;41041;43.162;20.538;2023-04-15T04:10:20;21.42;;;11.90;;
55150;SDS011;41041;43.162;20.538;2023-04-15T04:12:46;15.70;;;8.13;;
55150;SDS011;41041;43.162;20.538;2023-04-15T04:15:12;16.35;;;8.48;;
55150;SDS011;41041;43.162;20.538;2023-04-15T04:17:38;16.67;;;8.38;;
55150;SDS011;41041;43.162;20.538;2023-04-15T04:20:03;15.15;;;7.82;;
55150;SDS011;41041;43.162;20.538;2023-04-15T04:22:30;16.70;;;8.15;;
55150;SDS011;41041;43.162;20.538;2023-04-15T04:24:55;18.17;;;8.32;;
55150;SDS011;41041;43.162;20.538;2023-04-15T04:27:23;17.23;;;9.10;;
55150;SDS011;41041;43.162;20.538;2023-04-15T04:29:50;13.30;;;6.90;;
55150;SDS011;41041;43.162;20.538;2023-04-15T04:32:15;15.80;;;8.95;;
55150;SDS011;41041;43.162;20.538;2023-04-15T04:37:18;13.23;;;7.72;;
55150;SDS011;41041;43.162;20.538;2023-04-15T04:39:44;11.85;;;6.93;;
55150;SDS011;41041;43.162;20.538;2023-04-15T04:42:10;13.77;;;7.20;;
55150;SDS011;41041;43.162;20.538;2023-04-15T04:44:35;13.57;;;6.55;;
55150;SDS011;41041;43.162;20.538;2023-04-15T04:47:02;9.82;;;6.15;;
55150;SDS011;41041;43.162;20.538;2023-04-15T04:49:27;11.50;;;5.82;;
55150;SDS011;41041;43.162;20.538;2023-04-15T04:51:53;12.40;;;8.15;;
55150;SDS011;41041;43.162;20.538;2023-04-15T04:54:19;13.32;;;8.30;;
55150;SDS011;41041;43.162;20.538;2023-04-15T04:56:46;17.63;;;11.02;;
55150;SDS011;41041;43.162;20.538;2023-04-15T04:59:12;15.80;;;9.93;;
55150;SDS011;41041;43.162;20.538;2023-04-15T05:04:51;8.20;;;5.22;;
55150;SDS011;41041;43.162;20.538;2023-04-15T05:07:18;9.73;;;5.45;;
55150;SDS011;41041;43.162;20.538;2023-04-15T05:09:45;9.63;;;5.40;;
55150;SDS011;41041;43.162;20.538;2023-04-15T05:12:11;11.50;;;5.47;;
55150;SDS011;41041;43.162;20.538;2023-04-15T05:14:39;11.68;;;5.03;;
55150;SDS011;41041;43.162;20.538;2023-04-15T05:17:06;10.90;;;5.82;;
55150;SDS011;41041;43.162;20.538;2023-04-15T05:19:32;12.98;;;6.60;;
55150;SDS011;41041;43.162;20.538;2023-04-15T05:22:12;8.50;;;5.43;;
55150;SDS011;41041;43.162;20.538;2023-04-15T05:24:38;8.15;;;5.05;;
55150;SDS011;41041;43.162;20.538;2023-04-15T05:27:03;11.50;;;6.00;;
55150;SDS011;41041;43.162;20.538;2023-04-15T05:29:30;8.52;;;5.47;;
55150;SDS011;41041;43.162;20.538;2023-04-15T05:31:56;8.40;;;4.95;;
55150;SDS011;41041;43.162;20.538;2023-04-15T05:34:22;8.43;;;4.65;;
55150;SDS011;41041;43.162;20.538;2023-04-15T05:36:47;8.05;;;4.47;;
55150;SDS011;41041;43.162;20.538;2023-04-15T05:39:14;7.35;;;4.18;;
55150;SDS011;41041;43.162;20.538;2023-04-15T05:41:40;8.43;;;4.20;;
55150;SDS011;41041;43.162;20.538;2023-04-15T05:44:05;4.78;;;3.47;;
55150;SDS011;41041;43.162;20.538;2023-04-15T05:46:31;6.50;;;3.15;;
55150;SDS011;41041;43.162;20.538;2023-04-15T05:48:57;5.82;;;3.45;;
55150;SDS011;41041;43.162;20.538;2023-04-15T05:51:23;5.22;;;3.17;;
55150;SDS011;41041;43.162;20.538;2023-04-15T05:56:26;5.43;;;3.20;;
55150;SDS011;41041;43.162;20.538;2023-04-15T05:58:52;6.85;;;4.20;;
55150;SDS011;41041;43.162;20.538;2023-04-15T06:01:18;9.02;;;5.00;;
55150;SDS011;41041;43.162;20.538;2023-04-15T06:03:44;8.68;;;5.30;;
55150;SDS011;41041;43.162;20.538;2023-04-15T06:06:16;11.63;;;6.45;;
55150;SDS011;41041;43.162;20.538;2023-04-15T06:08:42;9.32;;;6.05;;
55150;SDS011;41041;43.162;20.538;2023-04-15T06:11:14;11.25;;;7.00;;
55150;SDS011;41041;43.162;20.538;2023-04-15T06:13:40;10.20;;;5.75;;
55150;SDS011;41041;43.162;20.538;2023-04-15T06:16:06;8.00;;;5.45;;
55150;SDS011;41041;43.162;20.538;2023-04-15T06:18:35;11.38;;;5.30;;
55150;SDS011;41041;43.162;20.538;2023-04-15T06:21:02;10.75;;;5.65;;
55150;SDS011;41041;43.162;20.538;2023-04-15T06:23:28;11.10;;;6.78;;
55150;SDS011;41041;43.162;20.538;2023-04-15T06:25:54;13.50;;;7.70;;
55150;SDS011;41041;43.162;20.538;2023-04-15T06:28:20;9.10;;;6.15;;
55150;SDS011;41041;43.162;20.538;2023-04-15T06:30:46;9.13;;;5.72;;
55150;SDS011;41041;43.162;20.538;2023-04-15T06:33:12;9.40;;;5.72;;
55150;SDS011;41041;43.162;20.538;2023-04-15T06:35:38;27.33;;;13.15;;
55150;SDS011;41041;43.162;20.538;2023-04-15T06:38:04;20.98;;;10.68;;
55150;SDS011;41041;43.162;20.538;2023-04-15T06:40:30;15.43;;;6.82;;
55150;SDS011;41041;43.162;20.538;2023-04-15T06:42:56;10.05;;;5.25;;
55150;SDS011;41041;43.162;20.538;2023-04-15T06:45:22;10.38;;;5.88;;
55150;SDS011;41041;43.162;20.538;2023-04-15T06:47:48;15.98;;;8.02;;
55150;SDS011;41041;43.162;20.538;2023-04-15T06:50:14;32.13;;;15.02;;
55150;SDS011;41041;43.162;20.538;2023-04-15T06:52:40;23.75;;;12.45;;
55150;SDS011;41041;43.162;20.538;2023-04-15T06:55:06;28.45;;;14.38;;
55150;SDS011;41041;43.162;20.538;2023-04-15T06:57:34;23.65;;;13.02;;
55150;SDS011;41041;43.162;20.538;2023-04-15T07:00:00;12.07;;;5.90;;
55150;SDS011;41041;43.162;20.538;2023-04-15T07:04:55;8.90;;;4.60;;
55150;SDS011;41041;43.162;20.538;2023-04-15T07:07:21;10.15;;;5.30;;
55150;SDS011;41041;43.162;20.538;2023-04-15T07:09:47;6.80;;;3.78;;
55150;SDS011;41041;43.162;20.538;2023-04-15T07:12:13;9.50;;;4.88;;
55150;SDS011;41041;43.162;20.538;2023-04-15T07:14:39;8.38;;;4.85;;
55150;SDS011;41041;43.162;20.538;2023-04-15T07:17:05;8.02;;;4.70;;
55150;SDS011;41041;43.162;20.538;2023-04-15T07:19:31;7.88;;;4.60;;
55150;SDS011;41041;43.162;20.538;2023-04-15T07:21:57;7.50;;;3.45;;
55150;SDS011;41041;43.162;20.538;2023-04-15T07:24:23;6.88;;;3.00;;
55150;SDS011;41041;43.162;20.538;2023-04-15T07:26:51;8.07;;;4.13;;
55150;SDS011;41041;43.162;20.538;2023-04-15T07:29:18;6.63;;;3.90;;
55150;SDS011;41041;43.162;20.538;2023-04-15T07:31:44;6.53;;;3.90;;
55150;SDS011;41041;43.162;20.538;2023-04-15T07:34:10;8.88;;;5.10;;
55150;SDS011;41041;43.162;20.538;2023-04-15T07:36:36;7.45;;;5.10;;
55150;SDS011;41041;43.162;20.538;2023-04-15T07:39:02;5.63;;;3.50;;
55150;SDS011;41041;43.162;20.538;2023-04-15T07:41:29;6.85;;;3.50;;
55150;SDS011;41041;43.162;20.538;2023-04-15T07:43:55;4.88;;;2.85;;
55150;SDS011;41041;43.162;20.538;2023-04-15T07:46:22;7.78;;;2.50;;
55150;SDS011;41041;43.162;20.538;2023-04-15T07:48:48;3.67;;;1.80;;
55150;SDS011;41041;43.162;20.538;2023-04-15T07:51:22;5.97;;;2.50;;
55150;SDS011;41041;43.162;20.538;2023-04-15T07:53:49;4.93;;;2.53;;
55150;SDS011;41041;43.162;20.538;2023-04-15T07:56:15;4.55;;;2.00;;
55150;SDS011;41041;43.162;20.538;2023-04-15T07:58:42;6.63;;;3.17;;
55150;SDS011;41041;43.162;20.538;2023-04-15T08:01:08;5.68;;;2.70;;
55150;SDS011;41041;43.162;20.538;2023-04-15T08:03:34;4.30;;;2.42;;
55150;SDS011;41041;43.162;20.538;2023-04-15T08:06:14;5.80;;;2.50;;
55150;SDS011;41041;43.162;20.538;2023-04-15T08:08:41;3.00;;;1.80;;
55150;SDS011;41041;43.162;20.538;2023-04-15T08:11:08;4.53;;;2.03;;
55150;SDS011;41041;43.162;20.538;2023-04-15T08:13:46;2.47;;;1.48;;
55150;SDS011;41041;43.162;20.538;2023-04-15T08:18:42;3.13;;;1.60;;
55150;SDS011;41041;43.162;20.538;2023-04-15T08:21:22;3.13;;;1.70;;
55150;SDS011;41041;43.162;20.538;2023-04-15T08:23:49;2.55;;;1.42;;
55150;SDS011;41041;43.162;20.538;2023-04-15T08:26:17;2.38;;;1.13;;
55150;SDS011;41041;43.162;20.538;2023-04-15T08:28:44;3.08;;;1.40;;
55150;SDS011;41041;43.162;20.538;2023-04-15T08:31:11;8.27;;;1.85;;
55150;SDS011;41041;43.162;20.538;2023-04-15T08:33:37;3.05;;;1.48;;
55150;SDS011;41041;43.162;20.538;2023-04-15T08:36:03;5.07;;;1.42;;
55150;SDS011;41041;43.162;20.538;2023-04-15T08:38:30;3.13;;;1.48;;
55150;SDS011;41041;43.162;20.538;2023-04-15T08:40:57;3.88;;;1.45;;
55150;SDS011;41041;43.162;20.538;2023-04-15T08:43:26;7.28;;;1.50;;
55150;SDS011;41041;43.162;20.538;2023-04-15T08:45:53;5.20;;;1.70;;
55150;SDS011;41041;43.162;20.538;2023-04-15T08:48:20;3.05;;;1.58;;
55150;SDS011;41041;43.162;20.538;2023-04-15T08:50:48;3.28;;;1.40;;
55150;SDS011;41041;43.162;20.538;2023-04-15T08:53:15;5.80;;;1.73;;
55150;SDS011;41041;43.162;20.538;2023-04-15T08:55:43;3.63;;;1.67;;
55150;SDS011;41041;43.162;20.538;2023-04-15T08:58:14;4.78;;;1.50;;
55150;SDS011;41041;43.162;20.538;2023-04-15T09:00:41;4.25;;;1.40;;
55150;SDS011;41041;43.162;20.538;2023-04-15T09:03:07;3.60;;;1.60;;
55150;SDS011;41041;43.162;20.538;2023-04-15T09:05:37;5.60;;;1.65;;
55150;SDS011;41041;43.162;20.538;2023-04-15T09:08:03;2.58;;;1.30;;
55150;SDS011;41041;43.162;20.538;2023-04-15T09:10:30;2.50;;;1.15;;
55150;SDS011;41041;43.162;20.538;2023-04-15T09:12:57;3.38;;;1.40;;
55150;SDS011;41041;43.162;20.538;2023-04-15T09:15:23;2.88;;;1.10;;
55150;SDS011;41041;43.162;20.538;2023-04-15T09:17:54;3.55;;;1.15;;
55150;SDS011;41041;43.162;20.538;2023-04-15T09:20:20;4.72;;;1.80;;
55150;SDS011;41041;43.162;20.538;2023-04-15T09:22:47;4.13;;;1.30;;
55150;SDS011;41041;43.162;20.538;2023-04-15T09:27:49;8.10;;;1.90;;
55150;SDS011;41041;43.162;20.538;2023-04-15T09:30:15;5.90;;;1.95;;
55150;SDS011;41041;43.162;20.538;2023-04-15T09:32:51;5.70;;;1.52;;
55150;SDS011;41041;43.162;20.538;2023-04-15T09:35:17;2.65;;;1.25;;
55150;SDS011;41041;43.162;20.538;2023-04-15T09:37:43;11.82;;;2.88;;
55150;SDS011;41041;43.162;20.538;2023-04-15T09:40:09;2.42;;;0.85;;
55150;SDS011;41041;43.162;20.538;2023-04-15T09:42:36;0.77;;;0.40;;
55150;SDS011;41041;43.162;20.538;2023-04-15T09:45:20;0.80;;;0.30;;
55150;SDS011;41041;43.162;20.538;2023-04-15T09:47:46;1.63;;;0.50;;
55150;SDS011;41041;43.162;20.538;2023-04-15T09:50:15;3.40;;;0.68;;
55150;SDS011;41041;43.162;20.538;2023-04-15T09:52:41;4.20;;;0.85;;
55150;SDS011;41041;43.162;20.538;2023-04-15T09:55:08;5.90;;;1.10;;
55150;SDS011;41041;43.162;20.538;2023-04-15T09:57:34;4.03;;;1.20;;
55150;SDS011;41041;43.162;20.538;2023-04-15T10:00:04;10.25;;;0.80;;
55150;SDS011;41041;43.162;20.538;2023-04-15T10:02:33;1.73;;;0.70;;
55150;SDS011;41041;43.162;20.538;2023-04-15T10:05:00;11.45;;;1.38;;
55150;SDS011;41041;43.162;20.538;2023-04-15T10:07:27;5.63;;;2.30;;
55150;SDS011;41041;43.162;20.538;2023-04-15T10:09:53;7.70;;;1.20;;
55150;SDS011;41041;43.162;20.538;2023-04-15T10:12:20;8.32;;;1.52;;
55150;SDS011;41041;43.162;20.538;2023-04-15T10:15:03;6.88;;;1.40;;
55150;SDS011;41041;43.162;20.538;2023-04-15T10:17:31;4.35;;;1.40;;
55150;SDS011;41041;43.162;20.538;2023-04-15T10:20:11;6.55;;;1.40;;
55150;SDS011;41041;43.162;20.538;2023-04-15T10:22:39;4.10;;;0.85;;
55150;SDS011;41041;43.162;20.538;2023-04-15T10:25:12;8.40;;;1.80;;
55150;SDS011;41041;43.162;20.538;2023-04-15T10:27:40;9.68;;;2.17;;
55150;SDS011;41041;43.162;20.538;2023-04-15T10:30:14;1.05;;;0.40;;
55150;SDS011;41041;43.162;20.538;2023-04-15T10:32:41;1.17;;;0.50;;
55150;SDS011;41041;43.162;20.538;2023-04-15T10:35:14;2.28;;;0.70;;
55150;SDS011;41041;43.162;20.538;2023-04-15T10:37:42;5.07;;;1.55;;
55150;SDS011;41041;43.162;20.538;2023-04-15T10:40:27;2.00;;;0.60;;
55150;SDS011;41041;43.162;20.538;2023-04-15T10:42:55;5.82;;;2.10;;
55150;SDS011;41041;43.162;20.538;2023-04-15T10:45:24;2.20;;;1.00;;
55150;SDS011;41041;43.162;20.538;2023-04-15T10:47:55;4.45;;;0.98;;
55150;SDS011;41041;43.162;20.538;2023-04-15T10:50:21;13.77;;;1.80;;
55150;SDS011;41041;43.162;20.538;2023-04-15T10:52:50;6.85;;;0.90;;
55150;SDS011;41041;43.162;20.538;2023-04-15T10:55:24;7.13;;;1.27;;
55150;SDS011;41041;43.162;20.538;2023-04-15T10:57:57;6.43;;;0.93;;
55150;SDS011;41041;43.162;20.538;2023-04-15T11:00:25;3.20;;;0.80;;
55150;SDS011;41041;43.162;20.538;2023-04-15T11:05:18;8.02;;;0.68;;
55150;SDS011;41041;43.162;20.538;2023-04-15T11:07:56;3.42;;;0.80;;
55150;SDS011;41041;43.162;20.538;2023-04-15T11:15:28;15.25;;;5.40;;
55150;SDS011;41041;43.162;20.538;2023-04-15T11:17:55;16.48;;;2.58;;
55150;SDS011;41041;43.162;20.538;2023-04-15T11:20:22;8.40;;;3.70;;
55150;SDS011;41041;43.162;20.538;2023-04-15T11:22:54;3.17;;;1.50;;
55150;SDS011;41041;43.162;20.538;2023-04-15T11:25:24;8.52;;;2.20;;
55150;SDS011;41041;43.162;20.538;2023-04-15T11:27:51;5.65;;;1.33;;
55150;SDS011;41041;43.162;20.538;2023-04-15T11:30:19;6.80;;;2.08;;
55150;SDS011;41041;43.162;20.538;2023-04-15T11:32:48;5.07;;;1.48;;
55150;SDS011;41041;43.162;20.538;2023-04-15T11:35:18;3.92;;;1.10;;
55150;SDS011;41041;43.162;20.538;2023-04-15T11:37:44;2.70;;;0.82;;
55150;SDS011;41041;43.162;20.538;2023-04-15T11:40:11;3.22;;;1.02;;
55150;SDS011;41041;43.162;20.538;2023-04-15T11:42:39;7.45;;;3.45;;
55150;SDS011;41041;43.162;20.538;2023-04-15T11:45:14;6.47;;;2.30;;
55150;SDS011;41041;43.162;20.538;2023-04-15T11:47:41;9.40;;;3.17;;
55150;SDS011;41041;43.162;20.538;2023-04-15T11:50:17;9.00;;;1.30;;
55150;SDS011;41041;43.162;20.538;2023-04-15T11:52:56;7.05;;;2.58;;
55150;SDS011;41041;43.162;20.538;2023-04-15T11:55:23;10.57;;;3.00;;
55150;SDS011;41041;43.162;20.538;2023-04-15T11:57:50;16.08;;;2.15;;
55150;SDS011;41041;43.162;20.538;2023-04-15T12:00:16;14.30;;;4.00;;
55150;SDS011;41041;43.162;20.538;2023-04-15T12:02:42;4.95;;;2.00;;
55150;SDS011;41041;43.162;20.538;2023-04-15T12:05:09;5.13;;;1.17;;
55150;SDS011;41041;43.162;20.538;2023-04-15T12:10:23;1.40;;;0.70;;
55150;SDS011;41041;43.162;20.538;2023-04-15T12:12:51;0.95;;;0.50;;
55150;SDS011;41041;43.162;20.538;2023-04-15T12:15:20;1.70;;;0.75;;
55150;SDS011;41041;43.162;20.538;2023-04-15T12:17:47;4.32;;;0.75;;
55150;SDS011;41041;43.162;20.538;2023-04-15T12:20:19;4.43;;;0.70;;
55150;SDS011;41041;43.162;20.538;2023-04-15T12:22:46;2.05;;;0.70;;
55150;SDS011;41041;43.162;20.538;2023-04-15T12:25:12;2.92;;;0.80;;
55150;SDS011;41041;43.162;20.538;2023-04-15T12:27:38;3.05;;;0.80;;
55150;SDS011;41041;43.162;20.538;2023-04-15T12:30:05;4.55;;;1.30;;
55150;SDS011;41041;43.162;20.538;2023-04-15T12:32:33;7.55;;;2.80;;
55150;SDS011;41041;43.162;20.538;2023-04-15T12:35:00;13.95;;;3.13;;
55150;SDS011;41041;43.162;20.538;2023-04-15T12:37:26;17.23;;;10.77;;
55150;SDS011;41041;43.162;20.538;2023-04-15T12:39:52;35.72;;;20.05;;
55150;SDS011;41041;43.162;20.538;2023-04-15T12:42:18;20.08;;;9.93;;
55150;SDS011;41041;43.162;20.538;2023-04-15T12:44:44;6.15;;;1.75;;
55150;SDS011;41041;43.162;20.538;2023-04-15T12:47:11;8.57;;;4.38;;
55150;SDS011;41041;43.162;20.538;2023-04-15T12:49:36;12.25;;;3.65;;
55150;SDS011;41041;43.162;20.538;2023-04-15T12:52:04;3.67;;;2.22;;
55150;SDS011;41041;43.162;20.538;2023-04-15T12:54:30;3.20;;;1.73;;
55150;SDS011;41041;43.162;20.538;2023-04-15T12:56:57;7.40;;;3.92;;
55150;SDS011;41041;43.162;20.538;2023-04-15T12:59:24;9.70;;;3.75;;
55150;SDS011;41041;43.162;20.538;2023-04-15T13:01:50;8.98;;;2.47;;
55150;SDS011;41041;43.162;20.538;2023-04-15T13:04:17;7.97;;;1.13;;
55150;SDS011;41041;43.162;20.538;2023-04-15T13:06:44;9.60;;;3.88;;
55150;SDS011;41041;43.162;20.538;2023-04-15T13:09:10;1.48;;;0.73;;
55150;SDS011;41041;43.162;20.538;2023-04-15T13:11:44;6.05;;;1.80;;
55150;SDS011;41041;43.162;20.538;2023-04-15T13:14:10;0.38;;;0.30;;
55150;SDS011;41041;43.162;20.538;2023-04-15T13:16:36;5.72;;;0.47;;
55150;SDS011;41041;43.162;20.538;2023-04-15T13:19:04;7.05;;;0.52;;
55150;SDS011;41041;43.162;20.538;2023-04-15T13:21:31;3.30;;;0.75;;
55150;SDS011;41041;43.162;20.538;2023-04-15T13:23:59;0.80;;;0.40;;
55150;SDS011;41041;43.162;20.538;2023-04-15T13:26:25;0.60;;;0.30;;
55150;SDS011;41041;43.162;20.538;2023-04-15T13:28:52;0.60;;;0.30;;
55150;SDS011;41041;43.162;20.538;2023-04-15T13:31:18;1.38;;;0.22;;
55150;SDS011;41041;43.162;20.538;2023-04-15T13:33:44;2.42;;;0.30;;
55150;SDS011;41041;43.162;20.538;2023-04-15T13:36:10;1.98;;;0.82;;
55150;SDS011;41041;43.162;20.538;2023-04-15T13:38:36;11.50;;;1.38;;
55150;SDS011;41041;43.162;20.538;2023-04-15T13:41:02;15.75;;;1.00;;
55150;SDS011;41041;43.162;20.538;2023-04-15T13:43:29;3.20;;;0.60;;
55150;SDS011;41041;43.162;20.538;2023-04-15T13:45:55;2.15;;;0.30;;
55150;SDS011;41041;43.162;20.538;2023-04-15T13:48:21;1.23;;;0.40;;
55150;SDS011;41041;43.162;20.538;2023-04-15T13:50:47;0.73;;;0.40;;
55150;SDS011;41041;43.162;20.538;2023-04-15T13:53:14;0.70;;;0.40;;
55150;SDS011;41041;43.162;20.538;2023-04-15T13:55:40;6.00;;;0.60;;
55150;SDS011;41041;43.162;20.538;2023-04-15T13:58:07;2.72;;;0.50;;
55150;SDS011;41041;43.162;20.538;2023-04-15T14:00:33;0.90;;;0.35;;
55150;SDS011;41041;43.162;20.538;2023-04-15T14:02:59;2.03;;;0.40;;
55150;SDS011;41041;43.162;20.538;2023-04-15T14:05:25;1.55;;;0.50;;
55150;SDS011;41041;43.162;20.538;2023-04-15T14:07:51;19.45;;;1.30;;
55150;SDS011;41041;43.162;20.538;2023-04-15T14:10:30;9.07;;;0.90;;
55150;SDS011;41041;43.162;20.538;2023-04-15T14:13:05;17.38;;;2.20;;
55150;SDS011;41041;43.162;20.538;2023-04-15T14:15:31;27.70;;;2.78;;
55150;SDS011;41041;43.162;20.538;2023-04-15T14:17:57;9.85;;;1.63;;
55150;SDS011;41041;43.162;20.538;2023-04-15T14:20:23;5.80;;;0.80;;
55150;SDS011;41041;43.162;20.538;2023-04-15T14:22:49;2.67;;;0.52;;
55150;SDS011;41041;43.162;20.538;2023-04-15T14:25:16;2.08;;;0.95;;
55150;SDS011;41041;43.162;20.538;2023-04-15T14:27:42;5.15;;;2.47;;
55150;SDS011;41041;43.162;20.538;2023-04-15T14:30:08;2.15;;;0.85;;
55150;SDS011;41041;43.162;20.538;2023-04-15T14:32:34;4.70;;;1.70;;
55150;SDS011;41041;43.162;20.538;2023-04-15T14:35:00;11.13;;;4.60;;
55150;SDS011;41041;43.162;20.538;2023-04-15T14:37:28;2.72;;;1.50;;
55150;SDS011;41041;43.162;20.538;2023-04-15T14:39:54;2.78;;;1.08;;
55150;SDS011;41041;43.162;20.538;2023-04-15T14:42:20;2.97;;;1.67;;
55150;SDS011;41041;43.162;20.538;2023-04-15T14:44:46;4.63;;;1.80;;
55150;SDS011;41041;43.162;20.538;2023-04-15T14:47:12;3.72;;;1.60;;
55150;SDS011;41041;43.162;20.538;2023-04-15T14:49:38;5.57;;;2.05;;
55150;SDS011;41041;43.162;20.538;2023-04-15T14:52:04;3.35;;;1.30;;
55150;SDS011;41041;43.162;20.538;2023-04-15T14:54:30;2.78;;;1.30;;
55150;SDS011;41041;43.162;20.538;2023-04-15T14:56:56;3.33;;;1.77;;
55150;SDS011;41041;43.162;20.538;2023-04-15T14:59:22;2.28;;;1.20;;